sensor_id;sensor_type;location;lat;lon;timestamp;pressure;altitude;pressure_sealevel;temperature;humidity
16255;BME280;8235;52.198;9.904;2023-04-24T00:01:50;99366.50;;;13.00;77.14
16255;BME280;8235;52.198;9.904;2023-04-24T00:04:17;99359.47;;;12.99;77.42
16255;BME280;8235;52.198;9.904;2023-04-24T00:06:43;99366.94;;;12.96;77.38
16255;BME280;8235;52.198;9.904;2023-04-24T00:09:14;99366.22;;;12.94;77.84
16255;BME280;8235;52.198;9.904;2023-04-24T00:11:41;99358.50;;;12.91;78.08
16255;BME280;8235;52.198;9.904;2023-04-24T00:14:07;99364.00;;;12.89;77.99
16255;BME280;8235;52.198;9.904;2023-04-24T00:16:35;99350.06;;;12.85;78.11
16255;BME280;8235;52.198;9.904;2023-04-24T00:19:01;99333.47;;;12.82;78.20
16255;BME280;8235;52.198;9.904;2023-04-24T00:21:28;99336.44;;;12.79;78.30
16255;BME280;8235;52.198;9.904;2023-04-24T00:23:55;99349.22;;;12.75;78.92
16255;BME280;8235;52.198;9.904;2023-04-24T00:26:21;99336.00;;;12.74;78.79
16255;BME280;8235;52.198;9.904;2023-04-24T00:28:48;99344.34;;;12.71;79.02
16255;BME280;8235;52.198;9.904;2023-04-24T00:31:14;99357.84;;;12.69;79.47
16255;BME280;8235;52.198;9.904;2023-04-24T00:33:42;99353.63;;;12.67;79.27
16255;BME280;8235;52.198;9.904;2023-04-24T00:36:09;99357.13;;;12.67;79.63
16255;BME280;8235;52.198;9.904;2023-04-24T00:38:35;99364.44;;;12.65;79.74
16255;BME280;8235;52.198;9.904;2023-04-24T00:41:02;99362.03;;;12.62;79.66
16255;BME280;8235;52.198;9.904;2023-04-24T00:43:28;99370.06;;;12.62;79.94
16255;BME280;8235;52.198;9.904;2023-04-24T00:45:55;99370.47;;;12.58;80.05
16255;BME280;8235;52.198;9.904;2023-04-24T00:48:23;99374.13;;;12.57;80.24
16255;BME280;8235;52.198;9.904;2023-04-24T00:50:51;99373.88;;;12.50;80.61
16255;BME280;8235;52.198;9.904;2023-04-24T00:53:18;99374.00;;;12.48;80.63
16255;BME280;8235;52.198;9.904;2023-04-24T00:55:45;99375.97;;;12.46;80.60
16255;BME280;8235;52.198;9.904;2023-04-24T00:58:12;99372.72;;;12.43;80.97
16255;BME280;8235;52.198;9.904;2023-04-24T01:00:38;99362.31;;;12.40;80.91
16255;BME280;8235;52.198;9.904;2023-04-24T01:03:06;99354.59;;;12.37;80.67
16255;BME280;8235;52.198;9.904;2023-04-24T01:05:33;99349.56;;;12.34;81.07
16255;BME280;8235;52.198;9.904;2023-04-24T01:08:01;99349.69;;;12.32;81.04
16255;BME280;8235;52.198;9.904;2023-04-24T01:10:29;99340.00;;;12.31;81.06
16255;BME280;8235;52.198;9.904;2023-04-24T01:12:58;99330.56;;;12.27;81.27
16255;BME280;8235;52.198;9.904;2023-04-24T01:15:24;99336.88;;;12.26;81.31
16255;BME280;8235;52.198;9.904;2023-04-24T01:17:51;99344.19;;;12.24;81.41
16255;BME280;8235;52.198;9.904;2023-04-24T01:20:17;99348.81;;;12.22;81.56
16255;BME280;8235;52.198;9.904;2023-04-24T01:22:47;99349.09;;;12.19;81.77
16255;BME280;8235;52.198;9.904;2023-04-24T01:25:13;99352.06;;;12.16;81.69
16255;BME280;8235;52.198;9.904;2023-04-24T01:27:40;99359.09;;;12.17;81.52
16255;BME280;8235;52.198;9.904;2023-04-24T01:30:08;99352.19;;;12.14;81.67
16255;BME280;8235;52.198;9.904;2023-04-24T01:32:35;99353.31;;;12.12;81.64
16255;BME280;8235;52.198;9.904;2023-04-24T01:35:02;99347.28;;;12.10;81.92
16255;BME280;8235;52.198;9.904;2023-04-24T01:37:28;99347.28;;;12.10;82.11
16255;BME280;8235;52.198;9.904;2023-04-24T01:39:58;99350.06;;;12.08;82.37
16255;BME280;8235;52.198;9.904;2023-04-24T01:42:25;99348.25;;;12.09;82.32
16255;BME280;8235;52.198;9.904;2023-04-24T01:44:53;99343.19;;;12.06;82.42
16255;BME280;8235;52.198;9.904;2023-04-24T01:47:20;99342.22;;;12.07;82.33
16255;BME280;8235;52.198;9.904;2023-04-24T01:49:47;99348.66;;;12.04;82.19
16255;BME280;8235;52.198;9.904;2023-04-24T01:52:14;99345.28;;;12.02;82.40
16255;BME280;8235;52.198;9.904;2023-04-24T01:54:41;99345.16;;;12.04;82.43
16255;BME280;8235;52.198;9.904;2023-04-24T01:57:09;99343.47;;;12.03;82.08
16255;BME280;8235;52.198;9.904;2023-04-24T01:59:35;99345.41;;;12.01;81.98
16255;BME280;8235;52.198;9.904;2023-04-24T02:02:02;99339.53;;;11.97;81.82
16255;BME280;8235;52.198;9.904;2023-04-24T02:04:29;99341.63;;;11.94;81.44
16255;BME280;8235;52.198;9.904;2023-04-24T02:06:55;99327.56;;;11.92;81.09
16255;BME280;8235;52.198;9.904;2023-04-24T02:09:21;99333.06;;;11.90;80.80
16255;BME280;8235;52.198;9.904;2023-04-24T02:11:48;99330.78;;;11.86;80.09
16255;BME280;8235;52.198;9.904;2023-04-24T02:14:16;99331.06;;;11.82;80.21
16255;BME280;8235;52.198;9.904;2023-04-24T02:16:42;99331.50;;;11.78;80.05
16255;BME280;8235;52.198;9.904;2023-04-24T02:19:09;99331.72;;;11.75;79.88
16255;BME280;8235;52.198;9.904;2023-04-24T02:21:35;99324.97;;;11.71;79.77
16255;BME280;8235;52.198;9.904;2023-04-24T02:24:02;99326.78;;;11.70;79.54
16255;BME280;8235;52.198;9.904;2023-04-24T02:26:29;99335.91;;;11.68;79.60
16255;BME280;8235;52.198;9.904;2023-04-24T02:28:57;99336.16;;;11.65;79.50
16255;BME280;8235;52.198;9.904;2023-04-24T02:31:24;99335.63;;;11.61;79.53
16255;BME280;8235;52.198;9.904;2023-04-24T02:33:51;99341.94;;;11.60;79.69
16255;BME280;8235;52.198;9.904;2023-04-24T02:36:17;99337.56;;;11.59;79.80
16255;BME280;8235;52.198;9.904;2023-04-24T02:38:44;99338.69;;;11.57;80.05
16255;BME280;8235;52.198;9.904;2023-04-24T02:41:10;99338.09;;;11.53;80.22
16255;BME280;8235;52.198;9.904;2023-04-24T02:43:37;99335.56;;;11.52;80.33
16255;BME280;8235;52.198;9.904;2023-04-24T02:46:03;99333.88;;;11.51;80.33
16255;BME280;8235;52.198;9.904;2023-04-24T02:48:31;99325.19;;;11.48;80.54
16255;BME280;8235;52.198;9.904;2023-04-24T02:50:58;99327.28;;;11.45;80.82
16255;BME280;8235;52.198;9.904;2023-04-24T02:53:24;99325.03;;;11.40;80.90
16255;BME280;8235;52.198;9.904;2023-04-24T02:55:51;99322.75;;;11.36;81.01
16255;BME280;8235;52.198;9.904;2023-04-24T02:58:17;99331.00;;;11.33;81.06
16255;BME280;8235;52.198;9.904;2023-04-24T03:00:45;99320.78;;;11.28;81.09
16255;BME280;8235;52.198;9.904;2023-04-24T03:03:11;99316.56;;;11.26;81.12
16255;BME280;8235;52.198;9.904;2023-04-24T03:05:39;99326.50;;;11.24;80.82
16255;BME280;8235;52.198;9.904;2023-04-24T03:08:05;99327.16;;;11.16;80.72
16255;BME280;8235;52.198;9.904;2023-04-24T03:10:32;99309.59;;;11.13;80.68
16255;BME280;8235;52.198;9.904;2023-04-24T03:12:58;99320.38;;;11.12;80.66
16255;BME280;8235;52.198;9.904;2023-04-24T03:15:25;99311.72;;;11.10;80.32
16255;BME280;8235;52.198;9.904;2023-04-24T03:17:52;99316.34;;;11.08;80.24
16255;BME280;8235;52.198;9.904;2023-04-24T03:20:19;99301.44;;;11.05;80.19
16255;BME280;8235;52.198;9.904;2023-04-24T03:22:46;99307.88;;;11.03;80.21
16255;BME280;8235;52.198;9.904;2023-04-24T03:25:13;99314.31;;;11.00;79.91
16255;BME280;8235;52.198;9.904;2023-04-24T03:27:39;99314.56;;;10.97;79.81
16255;BME280;8235;52.198;9.904;2023-04-24T03:30:07;99309.50;;;10.94;79.94
16255;BME280;8235;52.198;9.904;2023-04-24T03:32:34;99309.78;;;10.91;80.01
16255;BME280;8235;52.198;9.904;2023-04-24T03:35:00;99304.84;;;10.87;79.81
16255;BME280;8235;52.198;9.904;2023-04-24T03:37:27;99312.97;;;10.85;79.84
16255;BME280;8235;52.198;9.904;2023-04-24T03:39:55;99310.56;;;10.82;79.77
16255;BME280;8235;52.198;9.904;2023-04-24T03:42:21;99303.81;;;10.78;79.80
16255;BME280;8235;52.198;9.904;2023-04-24T03:44:48;99307.56;;;10.75;79.68
16255;BME280;8235;52.198;9.904;2023-04-24T03:47:14;99312.34;;;10.72;79.93
16255;BME280;8235;52.198;9.904;2023-04-24T03:49:41;99305.44;;;10.69;79.59
16255;BME280;8235;52.198;9.904;2023-04-24T03:52:07;99306.56;;;10.67;79.51
16255;BME280;8235;52.198;9.904;2023-04-24T03:54:34;99311.16;;;10.65;79.33
16255;BME280;8235;52.198;9.904;2023-04-24T03:57:02;99307.78;;;10.63;79.61
16255;BME280;8235;52.198;9.904;2023-04-24T03:59:30;99309.72;;;10.61;79.53
16255;BME280;8235;52.198;9.904;2023-04-24T04:01:56;99309.13;;;10.57;79.40
16255;BME280;8235;52.198;9.904;2023-04-24T04:04:23;99305.78;;;10.55;79.46
16255;BME280;8235;52.198;9.904;2023-04-24T04:06:49;99314.75;;;10.54;79.06
16255;BME280;8235;52.198;9.904;2023-04-24T04:09:16;99305.19;;;10.52;79.49
16255;BME280;8235;52.198;9.904;2023-04-24T04:11:42;99305.44;;;10.49;79.48
16255;BME280;8235;52.198;9.904;2023-04-24T04:14:10;99302.78;;;10.49;80.02
16255;BME280;8235;52.198;9.904;2023-04-24T04:16:37;99315.25;;;10.48;79.63
16255;BME280;8235;52.198;9.904;2023-04-24T04:19:03;99305.56;;;10.47;80.08
16255;BME280;8235;52.198;9.904;2023-04-24T04:21:30;99301.22;;;10.46;80.19
16255;BME280;8235;52.198;9.904;2023-04-24T04:23:57;99298.69;;;10.44;79.94
16255;BME280;8235;52.198;9.904;2023-04-24T04:26:24;99296.03;;;10.44;80.45
16255;BME280;8235;52.198;9.904;2023-04-24T04:28:50;99291.66;;;10.43;79.98
16255;BME280;8235;52.198;9.904;2023-04-24T04:31:18;99293.50;;;10.43;80.21
16255;BME280;8235;52.198;9.904;2023-04-24T04:33:46;99306.78;;;10.43;80.74
16255;BME280;8235;52.198;9.904;2023-04-24T04:36:12;99305.94;;;10.42;80.75
16255;BME280;8235;52.198;9.904;2023-04-24T04:38:39;99316.59;;;10.42;80.80
16255;BME280;8235;52.198;9.904;2023-04-24T04:41:05;99320.09;;;10.43;81.26
16255;BME280;8235;52.198;9.904;2023-04-24T04:43:32;99321.78;;;10.44;81.19
16255;BME280;8235;52.198;9.904;2023-04-24T04:45:59;99321.66;;;10.46;81.29
16255;BME280;8235;52.198;9.904;2023-04-24T04:48:29;99319.00;;;10.46;81.34
16255;BME280;8235;52.198;9.904;2023-04-24T04:50:56;99312.59;;;10.48;81.67
16255;BME280;8235;52.198;9.904;2023-04-24T04:53:23;99322.97;;;10.51;81.85
16255;BME280;8235;52.198;9.904;2023-04-24T04:55:50;99320.19;;;10.53;82.13
16255;BME280;8235;52.198;9.904;2023-04-24T04:58:16;99329.75;;;10.55;82.34
16255;BME280;8235;52.198;9.904;2023-04-24T05:00:43;99326.94;;;10.57;82.30
16255;BME280;8235;52.198;9.904;2023-04-24T05:03:09;99324.84;;;10.60;82.59
16255;BME280;8235;52.198;9.904;2023-04-24T05:05:37;99325.44;;;10.64;82.65
16255;BME280;8235;52.198;9.904;2023-04-24T05:08:05;99319.16;;;10.65;82.66
16255;BME280;8235;52.198;9.904;2023-04-24T05:10:32;99325.91;;;10.69;82.96
16255;BME280;8235;52.198;9.904;2023-04-24T05:12:59;99323.00;;;10.72;82.74
16255;BME280;8235;52.198;9.904;2023-04-24T05:15:26;99317.97;;;10.78;83.07
16255;BME280;8235;52.198;9.904;2023-04-24T05:17:52;99327.38;;;10.83;82.75
16255;BME280;8235;52.198;9.904;2023-04-24T05:20:18;99322.66;;;10.86;82.92
16255;BME280;8235;52.198;9.904;2023-04-24T05:22:46;99325.06;;;10.89;83.09
16255;BME280;8235;52.198;9.904;2023-04-24T05:25:13;99326.63;;;10.92;82.91
16255;BME280;8235;52.198;9.904;2023-04-24T05:27:40;99335.16;;;10.95;83.12
16255;BME280;8235;52.198;9.904;2023-04-24T05:30:07;99343.03;;;10.97;82.84
16255;BME280;8235;52.198;9.904;2023-04-24T05:32:34;99340.94;;;11.00;82.95
16255;BME280;8235;52.198;9.904;2023-04-24T05:35:01;99350.38;;;11.04;83.07
16255;BME280;8235;52.198;9.904;2023-04-24T05:37:27;99343.69;;;11.10;83.15
16255;BME280;8235;52.198;9.904;2023-04-24T05:39:55;99336.25;;;11.13;83.00
16255;BME280;8235;52.198;9.904;2023-04-24T05:42:21;99342.88;;;11.19;82.96
16255;BME280;8235;52.198;9.904;2023-04-24T05:44:48;99333.78;;;11.22;82.89
16255;BME280;8235;52.198;9.904;2023-04-24T05:47:14;99341.50;;;11.25;82.80
16255;BME280;8235;52.198;9.904;2023-04-24T05:49:41;99332.13;;;11.30;82.66
16255;BME280;8235;52.198;9.904;2023-04-24T05:52:07;99332.69;;;11.34;82.85
16255;BME280;8235;52.198;9.904;2023-04-24T05:54:34;99335.69;;;11.40;82.87
16255;BME280;8235;52.198;9.904;2023-04-24T05:57:02;99338.09;;;11.43;82.62
16255;BME280;8235;52.198;9.904;2023-04-24T05:59:32;99336.97;;;11.46;82.79
16255;BME280;8235;52.198;9.904;2023-04-24T06:01:59;99331.47;;;11.47;82.46
16255;BME280;8235;52.198;9.904;2023-04-24T06:04:25;99329.41;;;11.51;82.38
16255;BME280;8235;52.198;9.904;2023-04-24T06:06:52;99337.44;;;11.61;82.86
16255;BME280;8235;52.198;9.904;2023-04-24T06:09:21;99337.72;;;11.67;82.85
16255;BME280;8235;52.198;9.904;2023-04-24T06:11:47;99343.25;;;11.75;82.64
16255;BME280;8235;52.198;9.904;2023-04-24T06:14:15;99345.53;;;11.80;82.44
16255;BME280;8235;52.198;9.904;2023-04-24T06:16:42;99342.75;;;11.81;82.13
16255;BME280;8235;52.198;9.904;2023-04-24T06:19:08;99343.28;;;11.85;82.01
16255;BME280;8235;52.198;9.904;2023-04-24T06:21:35;99355.78;;;11.85;81.79
16255;BME280;8235;52.198;9.904;2023-04-24T06:24:01;99379.53;;;11.88;81.95
16255;BME280;8235;52.198;9.904;2023-04-24T06:26:28;99377.81;;;11.87;82.37
16255;BME280;8235;52.198;9.904;2023-04-24T06:28:55;99380.75;;;11.83;82.74
16255;BME280;8235;52.198;9.904;2023-04-24T06:31:25;99380.84;;;11.72;82.79
16255;BME280;8235;52.198;9.904;2023-04-24T06:33:51;99380.53;;;11.66;82.53
16255;BME280;8235;52.198;9.904;2023-04-24T06:36:17;99378.56;;;11.58;81.99
16255;BME280;8235;52.198;9.904;2023-04-24T06:38:44;99390.31;;;11.46;81.93
16255;BME280;8235;52.198;9.904;2023-04-24T06:41:11;99395.81;;;11.33;81.36
16255;BME280;8235;52.198;9.904;2023-04-24T06:43:38;99396.50;;;11.26;81.48
16255;BME280;8235;52.198;9.904;2023-04-24T06:46:04;99389.03;;;11.20;81.27
16255;BME280;8235;52.198;9.904;2023-04-24T06:48:32;99384.22;;;11.13;81.13
16255;BME280;8235;52.198;9.904;2023-04-24T06:50:58;99383.66;;;11.10;81.20
16255;BME280;8235;52.198;9.904;2023-04-24T06:53:25;99397.94;;;11.09;81.04
16255;BME280;8235;52.198;9.904;2023-04-24T06:55:52;99393.72;;;11.06;81.36
16255;BME280;8235;52.198;9.904;2023-04-24T06:58:19;99393.72;;;11.06;81.32
16255;BME280;8235;52.198;9.904;2023-04-24T07:00:45;99380.16;;;11.09;81.57
16255;BME280;8235;52.198;9.904;2023-04-24T07:03:12;99388.97;;;11.10;81.37
16255;BME280;8235;52.198;9.904;2023-04-24T07:05:39;99388.13;;;11.09;81.18
16255;BME280;8235;52.198;9.904;2023-04-24T07:08:06;99381.84;;;11.10;81.30
16255;BME280;8235;52.198;9.904;2023-04-24T07:10:33;99385.19;;;11.12;81.07
16255;BME280;8235;52.198;9.904;2023-04-24T07:13:00;99386.88;;;11.13;81.14
16255;BME280;8235;52.198;9.904;2023-04-24T07:15:27;99385.66;;;11.18;80.96
16255;BME280;8235;52.198;9.904;2023-04-24T07:17:53;99376.81;;;11.17;80.76
16255;BME280;8235;52.198;9.904;2023-04-24T07:20:20;99391.81;;;11.18;80.55
16255;BME280;8235;52.198;9.904;2023-04-24T07:22:48;99385.38;;;11.21;80.32
16255;BME280;8235;52.198;9.904;2023-04-24T07:25:16;99386.69;;;11.26;80.44
16255;BME280;8235;52.198;9.904;2023-04-24T07:27:43;99388.81;;;11.32;80.31
16255;BME280;8235;52.198;9.904;2023-04-24T07:30:10;99398.81;;;11.40;80.54
16255;BME280;8235;52.198;9.904;2023-04-24T07:32:37;99396.31;;;11.48;80.25
16255;BME280;8235;52.198;9.904;2023-04-24T07:35:04;99412.13;;;11.61;80.43
16255;BME280;8235;52.198;9.904;2023-04-24T07:37:31;99415.25;;;11.75;80.79
16255;BME280;8235;52.198;9.904;2023-04-24T07:39:58;99405.75;;;11.82;78.59
16255;BME280;8235;52.198;9.904;2023-04-24T07:42:25;99410.81;;;11.86;77.32
16255;BME280;8235;52.198;9.904;2023-04-24T07:44:51;99404.25;;;11.90;75.72
16255;BME280;8235;52.198;9.904;2023-04-24T07:47:18;99412.13;;;12.01;74.64
16255;BME280;8235;52.198;9.904;2023-04-24T07:49:44;99401.50;;;12.10;72.47
16255;BME280;8235;52.198;9.904;2023-04-24T07:52:11;99405.00;;;12.21;70.10
16255;BME280;8235;52.198;9.904;2023-04-24T07:54:37;99411.06;;;12.23;67.75
16255;BME280;8235;52.198;9.904;2023-04-24T07:57:05;99411.81;;;12.34;68.45
16255;BME280;8235;52.198;9.904;2023-04-24T07:59:33;99411.66;;;12.45;66.15
16255;BME280;8235;52.198;9.904;2023-04-24T08:01:59;99418.16;;;12.52;65.15
16255;BME280;8235;52.198;9.904;2023-04-24T08:04:26;99418.97;;;12.63;64.85
16255;BME280;8235;52.198;9.904;2023-04-24T08:06:53;99423.34;;;12.64;63.28
16255;BME280;8235;52.198;9.904;2023-04-24T08:09:20;99435.00;;;12.63;63.42
16255;BME280;8235;52.198;9.904;2023-04-24T08:11:46;99432.19;;;12.64;63.56
16255;BME280;8235;52.198;9.904;2023-04-24T08:14:14;99433.03;;;12.65;62.70
16255;BME280;8235;52.198;9.904;2023-04-24T08:16:41;99428.69;;;12.73;62.33
16255;BME280;8235;52.198;9.904;2023-04-24T08:19:07;99429.94;;;12.79;61.84
16255;BME280;8235;52.198;9.904;2023-04-24T08:21:34;99440.91;;;12.95;61.64
16255;BME280;8235;52.198;9.904;2023-04-24T08:24:01;99434.13;;;13.10;60.52
16255;BME280;8235;52.198;9.904;2023-04-24T08:26:30;99435.59;;;13.24;60.80
16255;BME280;8235;52.198;9.904;2023-04-24T08:28:56;99429.34;;;13.43;61.02
16255;BME280;8235;52.198;9.904;2023-04-24T08:31:24;99428.72;;;13.59;59.82
16255;BME280;8235;52.198;9.904;2023-04-24T08:33:51;99418.53;;;13.72;59.29
16255;BME280;8235;52.198;9.904;2023-04-24T08:36:17;99430.88;;;13.82;58.82
16255;BME280;8235;52.198;9.904;2023-04-24T08:38:44;99422.69;;;13.94;58.99
16255;BME280;8235;52.198;9.904;2023-04-24T08:41:14;99423.84;;;14.09;58.51
16255;BME280;8235;52.198;9.904;2023-04-24T08:43:41;99411.25;;;14.19;58.02
16255;BME280;8235;52.198;9.904;2023-04-24T08:46:08;99421.97;;;14.19;57.05
16255;BME280;8235;52.198;9.904;2023-04-24T08:48:37;99429.16;;;14.18;56.58
16255;BME280;8235;52.198;9.904;2023-04-24T08:51:07;99423.34;;;14.23;56.66
16255;BME280;8235;52.198;9.904;2023-04-24T08:53:34;99429.81;;;14.30;57.22
16255;BME280;8235;52.198;9.904;2023-04-24T08:56:01;99421.63;;;14.32;56.35
16255;BME280;8235;52.198;9.904;2023-04-24T08:58:28;99436.16;;;14.29;56.25
16255;BME280;8235;52.198;9.904;2023-04-24T09:00:56;99433.06;;;14.24;55.40
16255;BME280;8235;52.198;9.904;2023-04-24T09:03:23;99432.66;;;14.19;54.48
16255;BME280;8235;52.198;9.904;2023-04-24T09:05:52;99440.22;;;14.06;53.27
16255;BME280;8235;52.198;9.904;2023-04-24T09:08:20;99430.41;;;13.97;53.31
16255;BME280;8235;52.198;9.904;2023-04-24T09:10:50;99444.09;;;13.94;54.07
16255;BME280;8235;52.198;9.904;2023-04-24T09:13:17;99446.00;;;14.01;54.94
16255;BME280;8235;52.198;9.904;2023-04-24T09:15:44;99442.38;;;14.20;56.00
16255;BME280;8235;52.198;9.904;2023-04-24T09:18:11;99445.47;;;14.25;55.72
16255;BME280;8235;52.198;9.904;2023-04-24T09:21:00;99442.50;;;14.28;55.55
16255;BME280;8235;52.198;9.904;2023-04-24T09:23:28;99449.41;;;14.31;54.90
16255;BME280;8235;52.198;9.904;2023-04-24T09:25:55;99452.66;;;14.24;54.08
16255;BME280;8235;52.198;9.904;2023-04-24T09:28:25;99441.41;;;14.21;54.43
16255;BME280;8235;52.198;9.904;2023-04-24T09:31:02;99463.13;;;14.18;54.20
16255;BME280;8235;52.198;9.904;2023-04-24T09:33:29;99466.16;;;14.05;53.34
16255;BME280;8235;52.198;9.904;2023-04-24T09:35:56;99470.56;;;13.97;53.44
16255;BME280;8235;52.198;9.904;2023-04-24T09:38:33;99463.81;;;13.93;53.73
16255;BME280;8235;52.198;9.904;2023-04-24T09:41:00;99464.66;;;13.93;54.01
16255;BME280;8235;52.198;9.904;2023-04-24T09:43:28;99471.09;;;14.00;54.58
16255;BME280;8235;52.198;9.904;2023-04-24T09:45:56;99468.81;;;14.05;54.14
16255;BME280;8235;52.198;9.904;2023-04-24T09:48:33;99479.97;;;14.01;53.12
16255;BME280;8235;52.198;9.904;2023-04-24T09:51:02;99473.34;;;14.05;52.43
16255;BME280;8235;52.198;9.904;2023-04-24T09:53:29;99460.84;;;13.96;51.84
16255;BME280;8235;52.198;9.904;2023-04-24T09:56:02;99460.00;;;13.95;52.45
16255;BME280;8235;52.198;9.904;2023-04-24T09:58:28;99450.66;;;13.99;52.80
16255;BME280;8235;52.198;9.904;2023-04-24T10:00:55;99460.25;;;14.02;53.22
16255;BME280;8235;52.198;9.904;2023-04-24T10:03:24;99466.56;;;14.01;52.35
16255;BME280;8235;52.198;9.904;2023-04-24T10:05:52;99462.06;;;14.01;52.88
16255;BME280;8235;52.198;9.904;2023-04-24T10:08:19;99461.22;;;14.01;52.96
16255;BME280;8235;52.198;9.904;2023-04-24T10:10:45;99464.88;;;14.00;52.04
16255;BME280;8235;52.198;9.904;2023-04-24T10:13:14;99463.53;;;13.96;52.08
16255;BME280;8235;52.198;9.904;2023-04-24T10:15:41;99470.31;;;13.90;52.88
16255;BME280;8235;52.198;9.904;2023-04-24T10:18:09;99468.19;;;13.84;52.17
16255;BME280;8235;52.198;9.904;2023-04-24T10:20:37;99476.38;;;13.82;52.51
16255;BME280;8235;52.198;9.904;2023-04-24T10:23:05;99465.56;;;13.74;52.92
16255;BME280;8235;52.198;9.904;2023-04-24T10:25:32;99466.84;;;13.70;53.34
16255;BME280;8235;52.198;9.904;2023-04-24T10:28:00;99462.91;;;13.65;53.73
16255;BME280;8235;52.198;9.904;2023-04-24T10:30:30;99467.41;;;13.64;53.50
16255;BME280;8235;52.198;9.904;2023-04-24T10:33:00;99468.72;;;13.60;53.94
16255;BME280;8235;52.198;9.904;2023-04-24T10:35:30;99480.25;;;13.61;54.43
16255;BME280;8235;52.198;9.904;2023-04-24T10:37:59;99477.41;;;13.62;54.55
16255;BME280;8235;52.198;9.904;2023-04-24T10:40:30;99469.84;;;13.58;54.36
16255;BME280;8235;52.198;9.904;2023-04-24T10:42:57;99467.88;;;13.50;54.44
16255;BME280;8235;52.198;9.904;2023-04-24T10:45:24;99464.22;;;13.51;55.28
16255;BME280;8235;52.198;9.904;2023-04-24T10:47:56;99465.34;;;13.58;55.67
16255;BME280;8235;52.198;9.904;2023-04-24T10:50:23;99464.44;;;13.67;55.65
16255;BME280;8235;52.198;9.904;2023-04-24T10:52:50;99459.22;;;13.75;55.77
16255;BME280;8235;52.198;9.904;2023-04-24T10:55:39;99460.16;;;13.84;55.43
16255;BME280;8235;52.198;9.904;2023-04-24T10:58:05;99472.16;;;13.80;54.54
16255;BME280;8235;52.198;9.904;2023-04-24T11:00:32;99471.63;;;13.76;54.43
16255;BME280;8235;52.198;9.904;2023-04-24T11:03:00;99466.28;;;13.76;54.24
16255;BME280;8235;52.198;9.904;2023-04-24T11:08:37;99494.31;;;13.72;55.45
16255;BME280;8235;52.198;9.904;2023-04-24T11:11:09;99488.97;;;13.63;55.77
16255;BME280;8235;52.198;9.904;2023-04-24T11:16:34;99472.91;;;13.63;55.86
16255;BME280;8235;52.198;9.904;2023-04-24T11:19:04;99465.31;;;13.68;55.42
16255;BME280;8235;52.198;9.904;2023-04-24T11:21:48;99460.78;;;13.78;55.95
16255;BME280;8235;52.198;9.904;2023-04-24T11:24:27;99463.41;;;13.87;55.92
16255;BME280;8235;52.198;9.904;2023-04-24T11:26:55;99456.16;;;13.98;55.59
16255;BME280;8235;52.198;9.904;2023-04-24T11:29:22;99458.66;;;14.09;55.34
16255;BME280;8235;52.198;9.904;2023-04-24T11:31:49;99459.06;;;14.14;54.50
16255;BME280;8235;52.198;9.904;2023-04-24T11:34:18;99447.03;;;14.18;53.72
16255;BME280;8235;52.198;9.904;2023-04-24T11:36:45;99457.75;;;14.18;52.59
16255;BME280;8235;52.198;9.904;2023-04-24T11:39:13;99466.78;;;14.17;52.71
16255;BME280;8235;52.198;9.904;2023-04-24T11:41:39;99465.41;;;14.13;53.15
16255;BME280;8235;52.198;9.904;2023-04-24T11:44:08;99487.56;;;14.05;53.73
16255;BME280;8235;52.198;9.904;2023-04-24T11:46:34;99478.28;;;14.00;55.04
16255;BME280;8235;52.198;9.904;2023-04-24T11:49:03;99500.69;;;13.99;56.05
16255;BME280;8235;52.198;9.904;2023-04-24T11:51:31;99500.84;;;13.97;56.84
16255;BME280;8235;52.198;9.904;2023-04-24T11:53:58;99494.09;;;13.93;56.60
16255;BME280;8235;52.198;9.904;2023-04-24T11:56:24;99496.88;;;14.01;57.14
16255;BME280;8235;52.198;9.904;2023-04-24T11:58:52;99494.75;;;14.05;57.65
16255;BME280;8235;52.198;9.904;2023-04-24T12:01:19;99486.22;;;14.19;57.38
16255;BME280;8235;52.198;9.904;2023-04-24T12:03:47;99477.03;;;14.31;56.69
16255;BME280;8235;52.198;9.904;2023-04-24T12:06:14;99476.03;;;14.32;55.65
16255;BME280;8235;52.198;9.904;2023-04-24T12:08:45;99483.22;;;14.32;55.97
16255;BME280;8235;52.198;9.904;2023-04-24T12:11:14;99489.94;;;14.36;56.10
16255;BME280;8235;52.198;9.904;2023-04-24T12:13:41;99483.31;;;14.40;54.74
16255;BME280;8235;52.198;9.904;2023-04-24T12:16:08;99480.06;;;14.36;54.59
16255;BME280;8235;52.198;9.904;2023-04-24T12:18:34;99494.38;;;14.27;54.81
16255;BME280;8235;52.198;9.904;2023-04-24T12:21:14;99508.75;;;14.26;55.14
16255;BME280;8235;52.198;9.904;2023-04-24T12:23:44;99538.41;;;14.15;54.38
16255;BME280;8235;52.198;9.904;2023-04-24T12:26:11;99544.63;;;14.06;54.79
16255;BME280;8235;52.198;9.904;2023-04-24T12:28:38;99557.63;;;13.91;55.80
16255;BME280;8235;52.198;9.904;2023-04-24T12:31:06;99564.16;;;13.69;57.07
16255;BME280;8235;52.198;9.904;2023-04-24T12:33:33;99564.19;;;13.50;58.10
16255;BME280;8235;52.198;9.904;2023-04-24T12:36:00;99564.47;;;13.28;59.79
16255;BME280;8235;52.198;9.904;2023-04-24T12:38:28;99553.44;;;13.11;61.32
16255;BME280;8235;52.198;9.904;2023-04-24T12:41:04;99542.06;;;13.00;62.09
16255;BME280;8235;52.198;9.904;2023-04-24T12:43:31;99547.09;;;12.93;63.11
16255;BME280;8235;52.198;9.904;2023-04-24T12:45:57;99547.41;;;13.00;63.54
16255;BME280;8235;52.198;9.904;2023-04-24T12:48:25;99553.47;;;13.02;62.81
16255;BME280;8235;52.198;9.904;2023-04-24T12:50:51;99536.28;;;13.04;62.44
16255;BME280;8235;52.198;9.904;2023-04-24T12:53:18;99550.38;;;13.06;60.64
16255;BME280;8235;52.198;9.904;2023-04-24T12:55:44;99555.16;;;13.03;59.93
16255;BME280;8235;52.198;9.904;2023-04-24T12:58:13;99556.13;;;13.02;59.36
16255;BME280;8235;52.198;9.904;2023-04-24T13:00:40;99558.94;;;13.00;59.80
16255;BME280;8235;52.198;9.904;2023-04-24T13:03:08;99553.88;;;12.97;58.69
16255;BME280;8235;52.198;9.904;2023-04-24T13:05:34;99556.09;;;12.92;58.98
16255;BME280;8235;52.198;9.904;2023-04-24T13:08:01;99574.53;;;12.85;59.23
16255;BME280;8235;52.198;9.904;2023-04-24T13:10:27;99566.91;;;12.81;59.67
16255;BME280;8235;52.198;9.904;2023-04-24T13:12:54;99583.22;;;12.78;60.07
16255;BME280;8235;52.198;9.904;2023-04-24T13:15:22;99588.41;;;12.70;59.77
16255;BME280;8235;52.198;9.904;2023-04-24T13:17:48;99589.81;;;12.64;60.38